Time;durP1;ratioP1;P1;durP2;ratioP2;P2;SDS_P1;SDS_P2;PMS_P1;PMS_P2;Temp;Humidity;BMP_temperature;BMP_pressure;BME280_temperature;BME280_humidity;BME280_pressure;Samples;Min_cycle;Max_cycle;Signal;HPM_P1;HPM_P2
2021/12/26 00:01:42;;;;;;;8.82;5.10;;;;;;;;;;5023005;28;20041;-82
2021/12/26 00:04:13;;;;;;;11.80;4.90;;;;;;;;;;5040956;28;20033;-82
2021/12/26 00:06:39;;;;;;;11.20;4.60;;;;;;;;;;5042100;28;20117;-81
2021/12/26 00:09:05;;;;;;;9.07;4.75;;;;;;;;;;5040318;28;20072;-81
2021/12/26 00:11:31;;;;;;;9.23;5.05;;;;;;;;;;5041285;28;20037;-82
2021/12/26 00:13:57;;;;;;;10.88;5.10;;;;;;;;;;5038162;28;20034;-84
2021/12/26 00:16:24;;;;;;;11.23;4.95;;;;;;;;;;5037238;28;20128;-82
2021/12/26 00:18:50;;;;;;;10.35;4.88;;;;;;;;;;5037513;28;20116;-84
2021/12/26 00:21:17;;;;;;;11.55;4.70;;;;;;;;;;5022549;28;20097;-82
2021/12/26 00:23:43;;;;;;;10.50;4.97;;;;;;;;;;5022387;28;20046;-80
2021/12/26 00:26:09;;;;;;;8.43;4.47;;;;;;;;;;5028789;28;20037;-81
2021/12/26 00:28:35;;;;;;;14.43;4.57;;;;;;;;;;5025841;28;20041;-82
2021/12/26 00:31:02;;;;;;;10.75;4.50;;;;;;;;;;5046266;28;20041;-82
2021/12/26 00:33:28;;;;;;;10.80;4.65;;;;;;;;;;5027587;28;20780;-83
2021/12/26 00:35:54;;;;;;;10.35;4.95;;;;;;;;;;5026417;28;20041;-81
2021/12/26 00:38:20;;;;;;;10.07;5.35;;;;;;;;;;5042237;28;20140;-83
2021/12/26 00:40:46;;;;;;;11.95;5.03;;;;;;;;;;5024891;28;20037;-82
2021/12/26 00:43:12;;;;;;;9.10;4.82;;;;;;;;;;5025899;28;20034;-80
2021/12/26 00:45:39;;;;;;;11.55;5.07;;;;;;;;;;5028376;28;20064;-82
2021/12/26 00:48:07;;;;;;;10.32;5.38;;;;;;;;;;5027649;28;20081;-83
2021/12/26 00:50:33;;;;;;;9.27;4.65;;;;;;;;;;5025743;28;20045;-81
2021/12/26 00:52:59;;;;;;;10.43;5.10;;;;;;;;;;5025490;28;20408;-82
2021/12/26 00:55:25;;;;;;;9.95;5.53;;;;;;;;;;5029232;28;20029;-83
2021/12/26 00:57:51;;;;;;;8.65;4.85;;;;;;;;;;5045363;28;20098;-81
2021/12/26 01:00:18;;;;;;;9.82;5.38;;;;;;;;;;5045343;28;20168;-82
2021/12/26 01:02:45;;;;;;;13.30;5.82;;;;;;;;;;5043231;28;20048;-81
2021/12/26 01:05:11;;;;;;;9.93;5.25;;;;;;;;;;5042237;28;20361;-83
2021/12/26 01:07:50;;;;;;;12.75;5.97;;;;;;;;;;5024856;28;20050;-84
2021/12/26 01:10:19;;;;;;;14.25;6.03;;;;;;;;;;5027044;28;20480;-83
2021/12/26 01:12:45;;;;;;;11.20;5.55;;;;;;;;;;5028057;28;20425;-82
2021/12/26 01:15:12;;;;;;;11.48;5.57;;;;;;;;;;5043770;28;20041;-81
2021/12/26 01:17:39;;;;;;;11.27;5.53;;;;;;;;;;5043996;28;20037;-80
2021/12/26 01:20:08;;;;;;;12.02;5.70;;;;;;;;;;5044712;28;20116;-83
2021/12/26 01:22:34;;;;;;;15.00;5.40;;;;;;;;;;5044664;28;20053;-83
2021/12/26 01:25:00;;;;;;;12.02;5.70;;;;;;;;;;5044151;28;20041;-81
2021/12/26 01:27:27;;;;;;;9.98;5.55;;;;;;;;;;5042051;28;20037;-83
2021/12/26 01:29:53;;;;;;;10.52;5.97;;;;;;;;;;5026547;28;20552;-81
2021/12/26 01:32:20;;;;;;;9.30;5.50;;;;;;;;;;5040571;28;20060;-81
2021/12/26 01:34:46;;;;;;;10.00;5.90;;;;;;;;;;5023925;28;20037;-81
2021/12/26 01:37:12;;;;;;;10.07;5.60;;;;;;;;;;5043570;28;20433;-83
2021/12/26 01:39:38;;;;;;;12.52;5.85;;;;;;;;;;5041926;28;20104;-80
2021/12/26 01:42:04;;;;;;;10.15;5.72;;;;;;;;;;5059927;28;20049;-82
2021/12/26 01:44:30;;;;;;;11.30;5.70;;;;;;;;;;5043133;28;20017;-82
2021/12/26 01:46:58;;;;;;;10.73;6.18;;;;;;;;;;5053364;28;20069;-81
2021/12/26 01:49:25;;;;;;;11.88;5.88;;;;;;;;;;5050625;28;20128;-81
2021/12/26 01:51:52;;;;;;;11.98;6.22;;;;;;;;;;5031424;28;20044;-81
2021/12/26 01:54:28;;;;;;;11.73;6.28;;;;;;;;;;5027214;28;20037;-80
2021/12/26 01:56:54;;;;;;;12.05;6.07;;;;;;;;;;5041248;28;20361;-81
2021/12/26 01:59:20;;;;;;;13.75;6.25;;;;;;;;;;5039677;28;20041;-81
2021/12/26 02:01:46;;;;;;;10.15;5.72;;;;;;;;;;5022764;28;20121;-81
2021/12/26 02:04:12;;;;;;;11.68;5.90;;;;;;;;;;5040313;28;20060;-82
2021/12/26 02:06:38;;;;;;;14.30;5.80;;;;;;;;;;5025306;28;20052;-79
2021/12/26 02:09:05;;;;;;;14.52;6.22;;;;;;;;;;5026153;28;20041;-82
2021/12/26 02:11:31;;;;;;;11.98;5.90;;;;;;;;;;5026219;28;20038;-84
2021/12/26 02:13:57;;;;;;;10.90;5.97;;;;;;;;;;5025533;28;20037;-81
2021/12/26 02:16:23;;;;;;;11.32;5.57;;;;;;;;;;5025906;28;20033;-81
2021/12/26 02:18:49;;;;;;;14.02;5.72;;;;;;;;;;5023274;28;20065;-81
2021/12/26 02:21:44;;;;;;;13.02;5.78;;;;;;;;;;5023277;28;20041;-83
2021/12/26 02:24:22;;;;;;;11.85;6.20;;;;;;;;;;5040451;28;20048;-82
2021/12/26 02:29:33;;;;;;;14.43;6.32;;;;;;;;;;5041804;28;20135;-81
2021/12/26 02:31:59;;;;;;;11.13;5.93;;;;;;;;;;5025524;28;20152;-83
2021/12/26 02:34:25;;;;;;;12.60;6.25;;;;;;;;;;5042165;28;20041;-82
2021/12/26 02:36:51;;;;;;;12.43;5.65;;;;;;;;;;5042343;28;20400;-81
2021/12/26 02:39:17;;;;;;;13.63;5.60;;;;;;;;;;5043511;28;20037;-80
2021/12/26 02:41:43;;;;;;;10.93;6.03;;;;;;;;;;5040896;28;20371;-83
2021/12/26 02:44:10;;;;;;;12.80;5.47;;;;;;;;;;5024246;28;20052;-84
2021/12/26 02:46:36;;;;;;;11.80;6.22;;;;;;;;;;5025230;28;20381;-82
2021/12/26 02:49:02;;;;;;;13.50;6.28;;;;;;;;;;5042149;28;20130;-82
2021/12/26 02:51:28;;;;;;;11.00;5.90;;;;;;;;;;5039954;28;20038;-82
2021/12/26 02:53:54;;;;;;;14.55;6.00;;;;;;;;;;5039781;28;20465;-81
2021/12/26 02:56:20;;;;;;;9.00;5.68;;;;;;;;;;5025184;28;20048;-81
2021/12/26 02:58:46;;;;;;;11.82;6.10;;;;;;;;;;5043052;28;20053;-81
2021/12/26 03:01:17;;;;;;;12.10;6.45;;;;;;;;;;5043414;28;20060;-81
2021/12/26 03:03:43;;;;;;;11.73;6.00;;;;;;;;;;5032566;28;20061;-82
2021/12/26 03:06:17;;;;;;;12.73;6.43;;;;;;;;;;5036483;28;20045;-82
2021/12/26 03:08:43;;;;;;;9.93;5.63;;;;;;;;;;5053741;28;20045;-80
2021/12/26 03:11:09;;;;;;;8.77;5.85;;;;;;;;;;5050457;28;20037;-83
2021/12/26 03:13:35;;;;;;;11.20;6.15;;;;;;;;;;5028075;28;20117;-81
2021/12/26 03:16:01;;;;;;;14.65;6.68;;;;;;;;;;5043140;28;20050;-84
2021/12/26 03:18:27;;;;;;;14.48;6.50;;;;;;;;;;5041390;28;20041;-82
2021/12/26 03:20:53;;;;;;;9.68;5.57;;;;;;;;;;5023791;28;20076;-81
2021/12/26 03:23:20;;;;;;;11.95;5.80;;;;;;;;;;5022449;28;20073;-82
2021/12/26 03:25:46;;;;;;;10.02;5.95;;;;;;;;;;5023729;28;20094;-81
2021/12/26 03:28:12;;;;;;;12.63;6.40;;;;;;;;;;5027082;28;20061;-83
2021/12/26 03:30:38;;;;;;;11.60;6.20;;;;;;;;;;5044468;28;20041;-79
2021/12/26 03:33:05;;;;;;;14.77;6.65;;;;;;;;;;5041750;28;20048;-81
2021/12/26 03:35:31;;;;;;;13.55;6.00;;;;;;;;;;5024901;28;20146;-79
2021/12/26 03:37:58;;;;;;;10.77;5.85;;;;;;;;;;5048674;28;20044;-82
2021/12/26 03:40:24;;;;;;;12.98;6.20;;;;;;;;;;5031577;28;20049;-82
2021/12/26 03:42:53;;;;;;;13.95;6.28;;;;;;;;;;5021957;28;20159;-82
2021/12/26 03:45:19;;;;;;;11.52;6.10;;;;;;;;;;5025517;28;20124;-81
2021/12/26 03:47:49;;;;;;;11.15;5.80;;;;;;;;;;5025776;28;20045;-80
2021/12/26 03:50:15;;;;;;;10.90;6.25;;;;;;;;;;5042162;28;20069;-82
2021/12/26 03:52:41;;;;;;;9.88;5.90;;;;;;;;;;5038315;28;20097;-82
2021/12/26 03:55:07;;;;;;;10.73;5.88;;;;;;;;;;5039685;28;20072;-83
2021/12/26 03:57:33;;;;;;;10.05;6.03;;;;;;;;;;5038219;28;20369;-83
2021/12/26 03:59:59;;;;;;;12.00;6.45;;;;;;;;;;5024290;28;20041;-83
2021/12/26 04:02:25;;;;;;;14.25;6.20;;;;;;;;;;5026245;28;20059;-84
2021/12/26 04:04:51;;;;;;;11.27;6.03;;;;;;;;;;5043892;28;20124;-85
2021/12/26 04:07:17;;;;;;;10.77;6.05;;;;;;;;;;5044752;28;20037;-82
2021/12/26 04:09:43;;;;;;;9.95;6.22;;;;;;;;;;5044207;28;20108;-81
2021/12/26 04:12:09;;;;;;;10.35;5.65;;;;;;;;;;5044442;28;20120;-81
2021/12/26 04:14:35;;;;;;;11.73;6.05;;;;;;;;;;5024649;28;20037;-81
2021/12/26 04:17:01;;;;;;;11.45;5.75;;;;;;;;;;5026437;28;20085;-80
2021/12/26 04:19:27;;;;;;;12.18;5.43;;;;;;;;;;5026119;28;20037;-82
2021/12/26 04:21:53;;;;;;;12.32;5.45;;;;;;;;;;5025484;28;20040;-81
2021/12/26 04:24:19;;;;;;;10.80;5.47;;;;;;;;;;5044162;28;20041;-81
2021/12/26 04:26:45;;;;;;;10.95;5.07;;;;;;;;;;5026835;28;20050;-83
2021/12/26 04:29:11;;;;;;;13.48;5.10;;;;;;;;;;5043977;28;20041;-80
2021/12/26 04:31:38;;;;;;;10.30;5.30;;;;;;;;;;5042273;28;20052;-83
2021/12/26 04:34:04;;;;;;;9.55;5.45;;;;;;;;;;5042468;28;20064;-82
2021/12/26 04:36:30;;;;;;;13.63;5.78;;;;;;;;;;5027471;28;20051;-83
2021/12/26 04:38:56;;;;;;;11.00;5.65;;;;;;;;;;5027587;28;20048;-84
2021/12/26 04:41:22;;;;;;;10.10;5.82;;;;;;;;;;5027103;28;20045;-84
2021/12/26 04:43:48;;;;;;;11.30;6.03;;;;;;;;;;5026000;28;20052;-83
2021/12/26 04:46:14;;;;;;;10.15;5.50;;;;;;;;;;5028120;28;20068;-83
2021/12/26 04:48:41;;;;;;;10.65;5.78;;;;;;;;;;5046677;28;20041;-81
2021/12/26 04:51:08;;;;;;;11.15;5.90;;;;;;;;;;5029078;28;20041;-81
2021/12/26 04:53:34;;;;;;;11.75;5.85;;;;;;;;;;5051834;28;20046;-84
2021/12/26 04:56:00;;;;;;;11.23;6.05;;;;;;;;;;5040321;28;20041;-81
2021/12/26 04:58:26;;;;;;;20.23;6.28;;;;;;;;;;5033380;28;20068;-82
2021/12/26 05:00:52;;;;;;;10.20;5.72;;;;;;;;;;5031191;28;20044;-82
2021/12/26 05:03:18;;;;;;;15.27;7.18;;;;;;;;;;5029013;28;20029;-82
2021/12/26 05:05:44;;;;;;;10.63;6.20;;;;;;;;;;5029252;28;20480;-81
2021/12/26 05:08:11;;;;;;;10.77;6.35;;;;;;;;;;5048065;28;20041;-83
2021/12/26 05:10:37;;;;;;;12.00;6.35;;;;;;;;;;5030056;28;20036;-83
2021/12/26 05:13:03;;;;;;;13.90;6.97;;;;;;;;;;5029251;28;20103;-83
2021/12/26 05:15:29;;;;;;;12.45;6.28;;;;;;;;;;5028271;28;20097;-81
2021/12/26 05:17:55;;;;;;;12.48;5.95;;;;;;;;;;5048472;28;20041;-81
2021/12/26 05:20:21;;;;;;;13.60;5.85;;;;;;;;;;5031756;28;20037;-82
2021/12/26 05:22:47;;;;;;;11.18;6.18;;;;;;;;;;5032428;28;20461;-82
2021/12/26 05:25:14;;;;;;;9.98;5.57;;;;;;;;;;5048671;28;20114;-81
2021/12/26 05:27:40;;;;;;;10.57;6.32;;;;;;;;;;5030174;28;20445;-81
2021/12/26 05:30:07;;;;;;;9.93;5.85;;;;;;;;;;5027917;28;20037;-82
2021/12/26 05:32:33;;;;;;;13.43;6.05;;;;;;;;;;5027115;28;20111;-82
2021/12/26 05:34:59;;;;;;;9.05;5.80;;;;;;;;;;5027256;28;20072;-81
2021/12/26 05:37:25;;;;;;;9.38;5.78;;;;;;;;;;5027121;28;20076;-81
2021/12/26 05:39:51;;;;;;;12.15;6.10;;;;;;;;;;5040446;28;20053;-81
2021/12/26 05:42:17;;;;;;;10.93;6.03;;;;;;;;;;5030416;28;20049;-82
2021/12/26 05:44:43;;;;;;;12.45;5.70;;;;;;;;;;5047945;28;20045;-82
2021/12/26 05:47:09;;;;;;;10.90;5.35;;;;;;;;;;5029948;28;20075;-83
2021/12/26 05:49:35;;;;;;;12.23;5.88;;;;;;;;;;5045924;28;20029;-82
2021/12/26 05:52:01;;;;;;;9.85;5.75;;;;;;;;;;5029645;28;20090;-83
2021/12/26 05:54:27;;;;;;;10.20;6.10;;;;;;;;;;5048421;28;20029;-81
2021/12/26 05:56:53;;;;;;;10.55;6.03;;;;;;;;;;5030168;28;20726;-82
2021/12/26 05:59:19;;;;;;;10.80;5.70;;;;;;;;;;5030412;28;20036;-82
2021/12/26 06:01:45;;;;;;;13.55;6.00;;;;;;;;;;5028728;28;20357;-84
2021/12/26 06:04:11;;;;;;;9.95;5.72;;;;;;;;;;5044257;28;20062;-82
2021/12/26 06:06:37;;;;;;;10.60;5.35;;;;;;;;;;5030528;28;20045;-81
2021/12/26 06:09:04;;;;;;;11.50;6.03;;;;;;;;;;5030661;28;20037;-84
2021/12/26 06:11:30;;;;;;;13.25;6.18;;;;;;;;;;5046289;28;20056;-85
2021/12/26 06:13:56;;;;;;;10.48;6.32;;;;;;;;;;5046711;28;20041;-82
2021/12/26 06:16:22;;;;;;;10.65;4.95;;;;;;;;;;5030908;28;20076;-82
2021/12/26 06:18:48;;;;;;;9.95;5.47;;;;;;;;;;5029011;28;20049;-84
2021/12/26 06:21:14;;;;;;;12.30;5.65;;;;;;;;;;5028687;28;20068;-81
2021/12/26 06:23:40;;;;;;;11.75;5.97;;;;;;;;;;5049363;28;20064;-79
2021/12/26 06:26:06;;;;;;;10.20;5.95;;;;;;;;;;5074990;28;20071;-82
2021/12/26 06:28:32;;;;;;;11.75;6.53;;;;;;;;;;5028477;28;20037;-83
2021/12/26 06:30:58;;;;;;;12.05;6.10;;;;;;;;;;5030020;28;20041;-83
2021/12/26 06:33:24;;;;;;;12.55;6.50;;;;;;;;;;5029298;28;20037;-82
2021/12/26 06:35:50;;;;;;;11.93;5.80;;;;;;;;;;5046094;28;20407;-82
2021/12/26 06:38:16;;;;;;;11.38;5.85;;;;;;;;;;5030317;28;20109;-82
2021/12/26 06:40:42;;;;;;;11.68;5.63;;;;;;;;;;5030620;28;20123;-82
2021/12/26 06:43:11;;;;;;;12.00;5.32;;;;;;;;;;5030179;28;20124;-82
2021/12/26 06:45:37;;;;;;;10.60;5.35;;;;;;;;;;5028273;28;20102;-82
2021/12/26 06:48:06;;;;;;;10.02;5.10;;;;;;;;;;5039000;28;20104;-82
2021/12/26 06:50:32;;;;;;;11.13;5.75;;;;;;;;;;5022566;28;20064;-82
2021/12/26 06:52:58;;;;;;;8.50;4.93;;;;;;;;;;5024646;28;20449;-83
2021/12/26 06:55:24;;;;;;;9.77;5.05;;;;;;;;;;5024304;28;20044;-83
2021/12/26 06:57:50;;;;;;;10.90;5.45;;;;;;;;;;5039466;28;20034;-83
2021/12/26 07:00:16;;;;;;;9.02;4.72;;;;;;;;;;5025119;28;20421;-82
2021/12/26 07:02:42;;;;;;;6.95;4.20;;;;;;;;;;5025342;28;20057;-82
2021/12/26 07:05:11;;;;;;;9.25;4.88;;;;;;;;;;5026681;28;20131;-82
2021/12/26 07:07:37;;;;;;;10.10;5.30;;;;;;;;;;5026839;28;20041;-82
2021/12/26 07:10:03;;;;;;;9.68;6.43;;;;;;;;;;5035589;28;20021;-81
2021/12/26 07:12:29;;;;;;;10.02;5.80;;;;;;;;;;5037903;28;20072;-83
2021/12/26 07:14:55;;;;;;;10.02;5.35;;;;;;;;;;5048707;28;20034;-83
2021/12/26 07:17:21;;;;;;;10.02;5.28;;;;;;;;;;5026478;28;20029;-82
2021/12/26 07:19:47;;;;;;;8.38;5.07;;;;;;;;;;5041400;28;20052;-82
2021/12/26 07:22:13;;;;;;;11.65;5.25;;;;;;;;;;5022877;28;20040;-84
2021/12/26 07:24:43;;;;;;;9.27;4.90;;;;;;;;;;5040732;28;20045;-82
2021/12/26 07:27:10;;;;;;;10.93;5.47;;;;;;;;;;5025093;28;20044;-82
2021/12/26 07:29:36;;;;;;;9.07;4.78;;;;;;;;;;5038666;28;20041;-82
2021/12/26 07:32:02;;;;;;;10.27;5.72;;;;;;;;;;5037936;28;20045;-84
2021/12/26 07:34:28;;;;;;;11.38;5.85;;;;;;;;;;5039835;28;20093;-83
2021/12/26 07:36:54;;;;;;;10.50;5.90;;;;;;;;;;5044317;28;20041;-83
2021/12/26 07:39:20;;;;;;;10.52;5.85;;;;;;;;;;5027280;28;20146;-88
2021/12/26 07:41:46;;;;;;;10.40;5.93;;;;;;;;;;5042789;28;20037;-85
2021/12/26 07:44:12;;;;;;;10.48;5.45;;;;;;;;;;5028922;28;20068;-83
2021/12/26 07:46:38;;;;;;;12.23;5.82;;;;;;;;;;5032121;28;20088;-84
2021/12/26 07:49:04;;;;;;;9.93;5.93;;;;;;;;;;5032801;28;20456;-83
2021/12/26 07:51:30;;;;;;;10.18;5.60;;;;;;;;;;5032133;28;20079;-82
2021/12/26 07:54:01;;;;;;;11.77;6.28;;;;;;;;;;5032450;28;20037;-84
2021/12/26 07:56:27;;;;;;;10.10;5.65;;;;;;;;;;5038579;28;20040;-83
2021/12/26 07:58:53;;;;;;;11.70;5.63;;;;;;;;;;5056186;28;20021;-84
2021/12/26 08:01:19;;;;;;;8.55;5.20;;;;;;;;;;5029831;28;20051;-86
2021/12/26 08:03:46;;;;;;;8.82;5.50;;;;;;;;;;5030842;28;20044;-87
2021/12/26 08:06:16;;;;;;;12.70;5.95;;;;;;;;;;5045758;28;20071;-84
2021/12/26 08:08:42;;;;;;;11.15;5.60;;;;;;;;;;5046866;28;20151;-85
2021/12/26 08:11:10;;;;;;;10.55;5.13;;;;;;;;;;5033909;28;20041;-85
2021/12/26 08:13:36;;;;;;;11.43;6.45;;;;;;;;;;5044873;28;20037;-82
2021/12/26 08:16:02;;;;;;;10.38;6.15;;;;;;;;;;5030591;28;20036;-82
2021/12/26 08:18:28;;;;;;;12.60;6.18;;;;;;;;;;5026452;28;20111;-83
2021/12/26 08:20:54;;;;;;;13.38;5.70;;;;;;;;;;5026854;28;20040;-83
2021/12/26 08:23:20;;;;;;;10.73;6.40;;;;;;;;;;5025453;28;20040;-86
2021/12/26 08:25:46;;;;;;;14.50;6.55;;;;;;;;;;5041362;28;20037;-85
2021/12/26 08:28:14;;;;;;;10.57;6.00;;;;;;;;;;5024421;28;20095;-86
2021/12/26 08:30:41;;;;;;;14.05;6.38;;;;;;;;;;5023928;28;20032;-83
2021/12/26 08:33:07;;;;;;;10.13;6.07;;;;;;;;;;5023868;28;20033;-84
2021/12/26 08:35:34;;;;;;;11.25;7.00;;;;;;;;;;5023412;28;20068;-83
2021/12/26 08:38:00;;;;;;;13.27;7.28;;;;;;;;;;5040225;28;20048;-84
2021/12/26 08:40:26;;;;;;;13.25;7.13;;;;;;;;;;5023921;28;20471;-77
2021/12/26 08:42:52;;;;;;;14.18;6.78;;;;;;;;;;5051536;28;20043;-84
2021/12/26 08:45:18;;;;;;;16.45;6.95;;;;;;;;;;5039980;28;20041;-83
2021/12/26 08:47:46;;;;;;;12.20;7.45;;;;;;;;;;5046618;28;20081;-83
2021/12/26 08:50:12;;;;;;;14.20;8.50;;;;;;;;;;5025836;28;20044;-83
2021/12/26 08:52:38;;;;;;;14.02;7.28;;;;;;;;;;5044057;28;20067;-85
2021/12/26 08:55:04;;;;;;;13.93;7.97;;;;;;;;;;5026172;28;20120;-83
2021/12/26 08:57:32;;;;;;;12.13;7.88;;;;;;;;;;5043093;28;20078;-82
2021/12/26 08:59:58;;;;;;;13.95;7.70;;;;;;;;;;5027218;28;20041;-82
2021/12/26 09:02:24;;;;;;;15.35;7.93;;;;;;;;;;5043544;28;20045;-83
2021/12/26 09:04:50;;;;;;;17.33;8.18;;;;;;;;;;5044161;28;20041;-83
2021/12/26 09:07:16;;;;;;;15.30;8.23;;;;;;;;;;5025302;28;20351;-85
2021/12/26 09:09:42;;;;;;;13.23;7.43;;;;;;;;;;5044666;28;20037;-84
2021/12/26 09:12:08;;;;;;;22.98;12.88;;;;;;;;;;5045381;28;20044;-83
2021/12/26 09:14:34;;;;;;;19.08;10.18;;;;;;;;;;5045071;28;20033;-86
2021/12/26 09:17:00;;;;;;;15.93;8.65;;;;;;;;;;5045256;28;20037;-84
2021/12/26 09:19:28;;;;;;;14.43;8.50;;;;;;;;;;5046684;28;20030;-84
2021/12/26 09:21:55;;;;;;;13.13;7.55;;;;;;;;;;5048268;28;20038;-84
2021/12/26 09:24:21;;;;;;;13.55;7.70;;;;;;;;;;5045375;28;20112;-85
2021/12/26 09:26:47;;;;;;;15.55;7.88;;;;;;;;;;5045850;28;20048;-85
2021/12/26 09:29:13;;;;;;;15.93;7.85;;;;;;;;;;5027580;28;20037;-83
2021/12/26 09:31:39;;;;;;;13.68;7.95;;;;;;;;;;5052849;28;20026;-83
2021/12/26 09:34:05;;;;;;;15.48;9.27;;;;;;;;;;5057162;28;20056;-85
2021/12/26 09:36:32;;;;;;;16.83;9.07;;;;;;;;;;5055385;28;20037;-85
2021/12/26 09:38:59;;;;;;;13.98;7.82;;;;;;;;;;5035259;28;20041;-82
2021/12/26 09:41:26;;;;;;;13.85;7.97;;;;;;;;;;5043386;28;20071;-83
2021/12/26 09:43:53;;;;;;;17.45;9.60;;;;;;;;;;5026852;28;20413;-83
2021/12/26 09:46:19;;;;;;;14.80;8.68;;;;;;;;;;5026634;28;20046;-83
2021/12/26 09:48:45;;;;;;;14.35;8.50;;;;;;;;;;5047161;28;20041;-83
2021/12/26 09:51:12;;;;;;;15.40;8.07;;;;;;;;;;5033120;28;20056;-83
2021/12/26 09:53:39;;;;;;;13.77;7.97;;;;;;;;;;5048014;28;20059;-82
2021/12/26 09:56:06;;;;;;;13.75;8.20;;;;;;;;;;5030598;28;20037;-83
2021/12/26 09:58:32;;;;;;;15.88;7.70;;;;;;;;;;5029812;28;20041;-83
2021/12/26 10:00:58;;;;;;;19.58;8.52;;;;;;;;;;5029355;28;20174;-83
2021/12/26 10:03:30;;;;;;;15.77;7.63;;;;;;;;;;5048533;28;20352;-85
2021/12/26 10:05:56;;;;;;;11.80;7.60;;;;;;;;;;5048798;28;20120;-84
2021/12/26 10:08:22;;;;;;;15.43;8.05;;;;;;;;;;5047895;28;20040;-82
2021/12/26 10:11:08;;;;;;;18.67;8.75;;;;;;;;;;5030556;28;20077;-81
2021/12/26 10:13:41;;;;;;;16.40;9.20;;;;;;;;;;5048391;28;20041;-85
2021/12/26 10:16:07;;;;;;;15.82;9.00;;;;;;;;;;5049208;28;20047;-82
2021/12/26 10:18:39;;;;;;;15.95;8.18;;;;;;;;;;5035343;28;20029;-81
2021/12/26 10:21:14;;;;;;;16.58;9.05;;;;;;;;;;5062811;28;20039;-81
2021/12/26 10:23:40;;;;;;;16.80;8.68;;;;;;;;;;5032695;28;20053;-83
2021/12/26 10:26:06;;;;;;;13.77;8.88;;;;;;;;;;5028673;28;20106;-83
2021/12/26 10:28:32;;;;;;;15.98;8.88;;;;;;;;;;5062978;28;20138;-83
2021/12/26 10:31:08;;;;;;;14.70;8.68;;;;;;;;;;5044854;28;20067;-82
2021/12/26 10:33:47;;;;;;;14.32;8.80;;;;;;;;;;5029064;28;20033;-82
2021/12/26 10:36:13;;;;;;;17.30;9.38;;;;;;;;;;5045831;28;20044;-83
2021/12/26 10:38:39;;;;;;;13.73;8.27;;;;;;;;;;5045945;28;20048;-82
2021/12/26 10:41:05;;;;;;;17.60;8.63;;;;;;;;;;5045816;28;20048;-82
2021/12/26 10:43:45;;;;;;;13.93;8.50;;;;;;;;;;5046416;28;20041;-82
2021/12/26 10:46:14;;;;;;;14.57;8.90;;;;;;;;;;5046225;28;20036;-83
2021/12/26 10:48:40;;;;;;;15.57;8.90;;;;;;;;;;5029582;28;20045;-83
2021/12/26 10:51:06;;;;;;;18.33;9.65;;;;;;;;;;5045771;28;20119;-83
2021/12/26 10:53:32;;;;;;;13.95;8.70;;;;;;;;;;5045427;28;20037;-84
2021/12/26 10:55:58;;;;;;;19.27;9.30;;;;;;;;;;5031539;28;20037;-84
2021/12/26 10:58:27;;;;;;;13.68;9.07;;;;;;;;;;5029804;28;20164;-84
2021/12/26 11:00:54;;;;;;;14.55;8.63;;;;;;;;;;5031419;28;20532;-82
2021/12/26 11:03:27;;;;;;;15.10;9.02;;;;;;;;;;5030728;28;20120;-83
2021/12/26 11:05:54;;;;;;;15.75;9.00;;;;;;;;;;5033274;28;20024;-83
2021/12/26 11:08:34;;;;;;;18.52;9.23;;;;;;;;;;5040769;28;20045;-81
2021/12/26 11:11:08;;;;;;;15.77;8.38;;;;;;;;;;5029667;28;20044;-81
2021/12/26 11:13:34;;;;;;;18.70;10.27;;;;;;;;;;5047713;28;20033;-82
2021/12/26 11:16:01;;;;;;;15.50;9.13;;;;;;;;;;5035741;28;20041;-82
2021/12/26 11:18:27;;;;;;;13.20;8.48;;;;;;;;;;5036763;28;20055;-82
2021/12/26 11:20:54;;;;;;;16.58;9.10;;;;;;;;;;5049206;28;20457;-81
2021/12/26 11:23:21;;;;;;;16.65;8.88;;;;;;;;;;5047561;28;20095;-79
2021/12/26 11:25:52;;;;;;;15.90;9.05;;;;;;;;;;5051217;28;20049;-80
2021/12/26 11:28:22;;;;;;;14.23;8.98;;;;;;;;;;5050161;28;20048;-80
2021/12/26 11:30:48;;;;;;;14.38;8.98;;;;;;;;;;5049139;28;20048;-81
2021/12/26 11:33:14;;;;;;;16.08;9.80;;;;;;;;;;5034613;28;20356;-80
2021/12/26 11:35:40;;;;;;;16.25;10.45;;;;;;;;;;5035504;28;20444;-80
2021/12/26 11:38:11;;;;;;;16.65;10.60;;;;;;;;;;5035587;28;20040;-81
2021/12/26 11:40:41;;;;;;;18.58;11.10;;;;;;;;;;5031876;28;20041;-82
2021/12/26 11:43:37;;;;;;;16.55;9.50;;;;;;;;;;5052398;28;20057;-81
2021/12/26 11:46:09;;;;;;;18.60;10.82;;;;;;;;;;5046457;28;20056;-81
2021/12/26 11:48:45;;;;;;;15.75;9.20;;;;;;;;;;5046653;28;20057;-80
2021/12/26 11:51:21;;;;;;;15.30;9.30;;;;;;;;;;5046367;28;20451;-80
2021/12/26 11:53:58;;;;;;;17.48;9.38;;;;;;;;;;5050331;28;20037;-85
2021/12/26 11:56:31;;;;;;;14.68;9.18;;;;;;;;;;5048696;28;20044;-80
2021/12/26 11:59:03;;;;;;;18.48;10.23;;;;;;;;;;5049543;28;20051;-83
2021/12/26 12:01:29;;;;;;;15.80;9.25;;;;;;;;;;5031707;28;20032;-82
2021/12/26 12:04:17;;;;;;;18.52;10.73;;;;;;;;;;5053418;28;20056;-83
2021/12/26 12:06:43;;;;;;;17.60;10.43;;;;;;;;;;5046375;28;20041;-83
2021/12/26 12:09:28;;;;;;;29.23;13.15;;;;;;;;;;5046606;28;20041;-84
2021/12/26 12:11:58;;;;;;;23.02;11.85;;;;;;;;;;5047951;28;20040;-80
2021/12/26 12:14:48;;;;;;;20.60;10.43;;;;;;;;;;5029418;28;20056;-81
2021/12/26 12:17:15;;;;;;;16.50;10.85;;;;;;;;;;5032601;28;20090;-80
2021/12/26 12:20:00;;;;;;;19.25;11.05;;;;;;;;;;5025828;28;20041;-83
2021/12/26 12:22:39;;;;;;;82.10;44.05;;;;;;;;;;5051220;28;20064;-86
2021/12/26 12:25:24;;;;;;;36.00;21.05;;;;;;;;;;5033571;28;20044;-83
2021/12/26 12:28:07;;;;;;;17.52;11.43;;;;;;;;;;5048456;28;20041;-78
2021/12/26 12:30:33;;;;;;;18.52;12.07;;;;;;;;;;5029012;28;20131;-81
2021/12/26 12:33:16;;;;;;;17.40;11.27;;;;;;;;;;5068026;28;20123;-80
2021/12/26 12:36:02;;;;;;;19.27;11.00;;;;;;;;;;5028663;28;20047;-81
2021/12/26 12:38:29;;;;;;;21.80;12.07;;;;;;;;;;5030010;28;20503;-81
2021/12/26 12:40:56;;;;;;;18.83;11.40;;;;;;;;;;5032004;28;20052;-81
2021/12/26 12:43:23;;;;;;;22.40;10.98;;;;;;;;;;5050047;28;20032;-81
2021/12/26 12:45:56;;;;;;;19.60;11.38;;;;;;;;;;5055205;28;20045;-82
2021/12/26 12:48:22;;;;;;;23.02;12.18;;;;;;;;;;5056556;28;20052;-83
2021/12/26 12:50:49;;;;;;;16.65;11.15;;;;;;;;;;5052105;28;20044;-81
2021/12/26 12:53:33;;;;;;;19.15;10.77;;;;;;;;;;5049109;28;20041;-83
2021/12/26 12:55:59;;;;;;;22.52;11.98;;;;;;;;;;5065959;28;20040;-81
2021/12/26 12:58:31;;;;;;;20.83;11.15;;;;;;;;;;5030293;28;20033;-81
2021/12/26 13:01:02;;;;;;;17.35;11.40;;;;;;;;;;5031159;28;20033;-79
2021/12/26 13:03:31;;;;;;;23.60;11.95;;;;;;;;;;5030739;28;20049;-81
2021/12/26 13:05:57;;;;;;;19.52;12.30;;;;;;;;;;5030637;28;20052;-81
2021/12/26 13:08:24;;;;;;;23.23;13.73;;;;;;;;;;5047537;28;20053;-82
2021/12/26 13:10:53;;;;;;;19.70;12.38;;;;;;;;;;5032359;28;20440;-81
2021/12/26 13:13:21;;;;;;;21.60;11.75;;;;;;;;;;5029669;28;20036;-80
2021/12/26 13:15:50;;;;;;;28.88;17.83;;;;;;;;;;5047023;28;20040;-80
2021/12/26 13:18:17;;;;;;;27.25;16.10;;;;;;;;;;5045509;28;20052;-80
2021/12/26 13:20:43;;;;;;;22.42;13.18;;;;;;;;;;5045085;28;20126;-81
2021/12/26 13:23:09;;;;;;;21.83;13.05;;;;;;;;;;5044829;28;20041;-79
2021/12/26 13:25:39;;;;;;;19.15;11.95;;;;;;;;;;5048705;28;20041;-81
2021/12/26 13:28:06;;;;;;;22.35;12.25;;;;;;;;;;5052366;28;20056;-81
2021/12/26 13:30:32;;;;;;;21.20;14.20;;;;;;;;;;5053237;28;20044;-81
2021/12/26 13:32:58;;;;;;;25.27;14.48;;;;;;;;;;5030870;28;20036;-81
2021/12/26 13:35:35;;;;;;;21.20;13.35;;;;;;;;;;5044552;28;20039;-81
2021/12/26 13:38:01;;;;;;;23.23;13.90;;;;;;;;;;5045673;28;20076;-81
2021/12/26 13:40:27;;;;;;;25.13;15.27;;;;;;;;;;5029773;28;20037;-80
2021/12/26 13:42:53;;;;;;;27.83;16.92;;;;;;;;;;5032244;28;20048;-82
2021/12/26 13:45:32;;;;;;;23.80;14.90;;;;;;;;;;5047578;28;20056;-80
2021/12/26 13:47:58;;;;;;;24.40;15.30;;;;;;;;;;5028623;28;20076;-82
2021/12/26 13:50:24;;;;;;;43.42;22.67;;;;;;;;;;5037358;28;20037;-82
2021/12/26 13:53:19;;;;;;;32.92;17.45;;;;;;;;;;5036877;28;20461;-81
2021/12/26 13:55:52;;;;;;;29.20;16.33;;;;;;;;;;5036424;28;20084;-81
2021/12/26 13:58:18;;;;;;;25.35;14.15;;;;;;;;;;5030442;28;20048;-83
2021/12/26 14:00:48;;;;;;;22.98;15.32;;;;;;;;;;5046637;28;20365;-81
2021/12/26 14:03:17;;;;;;;27.83;15.40;;;;;;;;;;5025603;28;20365;-81
2021/12/26 14:05:43;;;;;;;31.27;17.13;;;;;;;;;;5043188;28;20045;-82
2021/12/26 14:08:13;;;;;;;37.83;19.38;;;;;;;;;;5042134;28;20043;-80
2021/12/26 14:10:39;;;;;;;25.40;16.35;;;;;;;;;;5024980;28;20107;-80
2021/12/26 14:13:05;;;;;;;28.88;16.67;;;;;;;;;;5041252;28;20385;-82
2021/12/26 14:15:34;;;;;;;28.17;17.30;;;;;;;;;;5045359;28;20044;-81
2021/12/26 14:18:11;;;;;;;28.00;16.48;;;;;;;;;;5032869;28;20049;-82
2021/12/26 14:20:51;;;;;;;27.63;16.40;;;;;;;;;;5048471;28;20049;-80
2021/12/26 14:23:17;;;;;;;25.48;15.90;;;;;;;;;;5047366;28;20037;-81
2021/12/26 14:25:43;;;;;;;27.90;16.80;;;;;;;;;;5049395;28;20341;-82
2021/12/26 14:28:12;;;;;;;28.40;17.00;;;;;;;;;;5029991;28;20060;-81
2021/12/26 14:30:38;;;;;;;23.58;14.70;;;;;;;;;;5044046;28;20037;-81
2021/12/26 14:33:04;;;;;;;23.73;15.05;;;;;;;;;;5045213;28;20069;-80
2021/12/26 14:35:31;;;;;;;24.00;14.70;;;;;;;;;;5045916;28;20050;-81